Time;durP1;ratioP1;P1;durP2;ratioP2;P2;SDS_P1;SDS_P2;PMS_P1;PMS_P2;Temp;Humidity;BMP_temperature;BMP_pressure;BME280_temperature;BME280_humidity;BME280_pressure;Samples;Min_cycle;Max_cycle;Signal;HPM_P1;HPM_P2
2023/01/22 00:01:00;;;;;;;36.30;17.38;;;;;;;-144.31;100.00;58022.63;5033251;28;20068;-59
2023/01/22 00:03:26;;;;;;;37.03;17.63;;;;;;;-144.31;100.00;58022.63;5034622;28;20033;-59
2023/01/22 00:05:51;;;;;;;35.45;17.50;;;;;;;-144.31;100.00;58022.63;5033187;28;20056;-56
2023/01/22 00:08:18;;;;;;;33.15;16.40;;;;;;;-144.31;100.00;58022.63;5033085;28;20048;-56
2023/01/22 00:10:54;;;;;;;33.73;16.83;;;;;;;-144.31;100.00;58022.63;5035714;28;20489;-58
2023/01/22 00:13:21;;;;;;;36.92;16.45;;;;;;;-144.31;100.00;58022.63;5034753;28;20324;-58
2023/01/22 00:15:47;;;;;;;37.75;18.10;;;;;;;-144.31;100.00;58022.63;5048018;28;20041;-55
2023/01/22 00:18:13;;;;;;;32.28;16.33;;;;;;;-144.31;100.00;58022.63;5033996;28;20041;-57
2023/01/22 00:20:38;;;;;;;34.72;16.13;;;;;;;-144.31;100.00;58022.63;5032493;28;20037;-59
2023/01/22 00:23:04;;;;;;;35.13;16.77;;;;;;;-144.31;100.00;58022.63;5033059;28;20040;-54
2023/01/22 00:25:29;;;;;;;31.73;16.67;;;;;;;-144.31;100.00;58022.63;5033309;28;20092;-59
2023/01/22 00:27:55;;;;;;;32.90;15.90;;;;;;;-144.31;100.00;58022.63;5032538;28;20141;-59
2023/01/22 00:30:20;;;;;;;36.70;16.77;;;;;;;-144.31;100.00;58022.63;5033857;28;20037;-57
2023/01/22 00:32:46;;;;;;;33.53;16.17;;;;;;;-144.31;100.00;58022.63;5031707;28;20047;-57
2023/01/22 00:35:12;;;;;;;31.02;16.15;;;;;;;-144.31;100.00;58022.63;5034266;28;20045;-54
2023/01/22 00:37:37;;;;;;;32.67;16.35;;;;;;;-144.31;100.00;58022.63;5034800;28;20043;-56
2023/01/22 00:40:04;;;;;;;35.42;18.02;;;;;;;-144.31;100.00;58022.63;5033306;28;20067;-56
2023/01/22 00:42:30;;;;;;;37.15;18.35;;;;;;;-144.31;100.00;58022.63;5041312;28;20033;-57
2023/01/22 00:44:56;;;;;;;34.55;17.70;;;;;;;-144.31;100.00;58022.63;5040852;28;20067;-57
2023/01/22 00:47:21;;;;;;;38.40;17.10;;;;;;;-144.31;100.00;58022.63;5031855;28;20044;-60
2023/01/22 00:49:46;;;;;;;42.63;18.55;;;;;;;-144.31;100.00;58022.63;5032533;28;20033;-54
2023/01/22 00:52:12;;;;;;;36.78;17.15;;;;;;;-144.31;100.00;58022.63;5032289;28;20070;-57
2023/01/22 00:54:37;;;;;;;34.97;16.80;;;;;;;-144.31;100.00;58022.63;5034878;28;20112;-56
2023/01/22 00:57:03;;;;;;;31.02;16.05;;;;;;;-144.31;100.00;58022.63;5033773;28;20382;-54
2023/01/22 00:59:29;;;;;;;33.40;17.58;;;;;;;-144.31;100.00;58022.63;5033765;28;20072;-56
2023/01/22 01:01:54;;;;;;;33.38;15.70;;;;;;;-144.31;100.00;58022.63;5033114;28;20120;-58
2023/01/22 01:04:20;;;;;;;33.22;17.00;;;;;;;-144.31;100.00;58022.63;5031422;28;20094;-56
2023/01/22 01:06:47;;;;;;;;;;;;;;;-144.31;100.00;58022.63;5032920;28;20040;-58
2023/01/22 01:09:12;;;;;;;34.28;16.83;;;;;;;-144.31;100.00;58022.63;5037254;28;19916;-56
2023/01/22 01:11:38;;;;;;;32.85;16.60;;;;;;;-144.31;100.00;58022.63;5036595;28;20037;-58
2023/01/22 01:14:03;;;;;;;33.17;16.65;;;;;;;-144.31;100.00;58022.63;5016953;28;20037;-55
2023/01/22 01:16:31;;;;;;;38.78;18.25;;;;;;;-144.31;100.00;58022.63;5032811;28;20065;-56
2023/01/22 01:19:01;;;;;;;;;;;;;;;-144.31;100.00;58022.63;5037274;28;20042;-59
2023/01/22 01:21:27;;;;;;;31.45;15.15;;;;;;;-144.31;100.00;58022.63;5032974;28;19921;-58
2023/01/22 01:23:54;;;;;;;37.10;16.83;;;;;;;-144.31;100.00;58022.63;5040445;28;20050;-58
2023/01/22 01:26:20;;;;;;;;;;;;;;;-144.31;100.00;58022.63;5034172;28;20037;-59
2023/01/22 01:28:46;;;;;;;49.28;16.90;;;;;;;-144.31;100.00;58022.63;5034781;28;19921;-58
2023/01/22 01:31:14;;;;;;;69.95;20.17;;;;;;;-144.31;100.00;58022.63;5030622;28;20149;-57
2023/01/22 01:33:41;;;;;;;44.65;17.80;;;;;;;-144.31;100.00;58022.63;5049797;28;20045;-55
2023/01/22 01:36:11;;;;;;;39.03;16.95;;;;;;;-144.31;100.00;58022.63;5032747;28;20033;-54
2023/01/22 01:38:37;;;;;;;36.30;17.40;;;;;;;-144.31;100.00;58022.63;5030446;28;20096;-58
2023/01/22 01:41:04;;;;;;;32.83;16.45;;;;;;;-144.31;100.00;58022.63;5031237;28;20049;-61
2023/01/22 01:43:30;;;;;;;37.60;17.95;;;;;;;-144.31;100.00;58022.63;5030890;28;20147;-59
2023/01/22 01:45:58;;;;;;;39.10;17.08;;;;;;;-144.31;100.00;58022.63;5032320;28;20086;-57
2023/01/22 01:48:32;;;;;;;37.00;17.48;;;;;;;-144.31;100.00;58022.63;5030437;28;20041;-60
2023/01/22 01:51:28;;;;;;;35.08;16.55;;;;;;;-144.31;100.00;58022.63;5031586;28;20497;-54
2023/01/22 01:53:55;;;;;;;33.33;16.55;;;;;;;-144.31;100.00;58022.63;5032201;28;20050;-59
2023/01/22 01:56:29;;;;;;;33.22;16.40;;;;;;;-144.31;100.00;58022.63;5035729;28;20130;-56
2023/01/22 01:58:59;;;;;;;34.35;16.90;;;;;;;-144.31;100.00;58022.63;5036805;28;20037;-57
2023/01/22 02:01:26;;;;;;;37.13;17.60;;;;;;;-144.31;100.00;58022.63;5031561;28;20508;-58
2023/01/22 02:03:52;;;;;;;36.60;17.90;;;;;;;-144.31;100.00;58022.63;5043327;28;20047;-58
2023/01/22 02:06:18;;;;;;;36.03;17.00;;;;;;;-144.31;100.00;58022.63;5036378;28;20053;-55
2023/01/22 02:08:47;;;;;;;37.25;17.80;;;;;;;-144.31;100.00;58022.63;5035736;28;20048;-56
2023/01/22 02:11:13;;;;;;;37.20;18.40;;;;;;;-144.31;100.00;58022.63;5035274;28;20094;-57
2023/01/22 02:13:45;;;;;;;32.10;16.50;;;;;;;-144.31;100.00;58022.63;5039166;28;20548;-57
2023/01/22 02:16:11;;;;;;;35.63;17.05;;;;;;;-144.31;100.00;58022.63;5035857;28;20492;-56
2023/01/22 02:18:36;;;;;;;38.15;17.00;;;;;;;-144.31;100.00;58022.63;5032104;28;20053;-59
2023/01/22 02:21:02;;;;;;;39.42;18.17;;;;;;;-144.31;100.00;58022.63;5036065;28;20558;-62
2023/01/22 02:23:30;;;;;;;34.33;17.30;;;;;;;-144.31;100.00;58022.63;5037246;28;20041;-58
2023/01/22 02:25:57;;;;;;;38.97;17.02;;;;;;;-144.31;100.00;58022.63;5035741;28;21012;-56
2023/01/22 02:28:23;;;;;;;;;;;;;;;-144.31;100.00;58022.63;5034515;28;20040;-58
2023/01/22 02:30:49;;;;;;;34.80;16.88;;;;;;;-144.31;100.00;58022.63;5043824;28;19923;-59
2023/01/22 02:33:15;;;;;;;35.17;17.25;;;;;;;-144.31;100.00;58022.63;5038110;28;20045;-55
2023/01/22 02:35:42;;;;;;;36.67;18.05;;;;;;;-144.31;100.00;58022.63;5036248;28;20047;-57
2023/01/22 02:38:08;;;;;;;40.60;18.30;;;;;;;-144.31;100.00;58022.63;5032646;28;20041;-58
2023/01/22 02:40:33;;;;;;;37.22;18.67;;;;;;;-144.31;100.00;58022.63;5037263;28;20048;-59
2023/01/22 02:42:59;;;;;;;38.08;19.75;;;;;;;-144.31;100.00;58022.63;5042204;28;20440;-60
2023/01/22 02:45:25;;;;;;;37.85;19.25;;;;;;;-144.31;100.00;58022.63;5035216;28;20038;-59
2023/01/22 02:47:51;;;;;;;39.25;19.00;;;;;;;-144.31;100.00;58022.63;5033039;28;20045;-60
2023/01/22 02:50:17;;;;;;;37.25;19.40;;;;;;;-144.31;100.00;58022.63;5036204;28;20045;-55
2023/01/22 02:52:42;;;;;;;37.38;17.50;;;;;;;-144.31;100.00;58022.63;5050601;28;20045;-57
2023/01/22 02:55:08;;;;;;;37.10;17.40;;;;;;;-144.31;100.00;58022.63;5035680;28;20116;-57
2023/01/22 02:57:33;;;;;;;40.55;19.15;;;;;;;-144.31;100.00;58022.63;5019804;28;20425;-56
2023/01/22 02:59:59;;;;;;;40.15;18.60;;;;;;;-144.31;100.00;58022.63;5034439;28;20048;-58
2023/01/22 03:02:25;;;;;;;39.45;19.15;;;;;;;-144.31;100.00;58022.63;5031805;28;20029;-60
2023/01/22 03:04:51;;;;;;;42.13;20.00;;;;;;;-144.31;100.00;58022.63;5021079;28;20051;-55
2023/01/22 03:07:17;;;;;;;39.90;19.83;;;;;;;-144.31;100.00;58022.63;5037727;28;20482;-58
2023/01/22 03:09:44;;;;;;;40.17;18.63;;;;;;;-144.31;100.00;58022.63;5033632;28;20883;-55
2023/01/22 03:12:11;;;;;;;37.13;18.92;;;;;;;-144.31;100.00;58022.63;5034123;28;20033;-57
2023/01/22 03:22:51;;;;;;;38.70;19.77;;;;;;;-144.31;100.00;58022.63;5041890;28;20048;-59
2023/01/22 03:25:18;;;;;;;40.87;18.43;;;;;;;-144.31;100.00;58022.63;5034578;28;20140;-57
2023/01/22 03:30:29;;;;;;;39.55;17.45;;;;;;;-144.31;100.00;58022.63;5038066;28;20406;-56
2023/01/22 03:32:54;;;;;;;44.10;18.67;;;;;;;-144.31;100.00;58022.63;5016845;28;20041;-57
2023/01/22 03:35:20;;;;;;;38.97;18.45;;;;;;;-144.31;100.00;58022.63;5032497;28;20048;-59
2023/01/22 03:38:00;;;;;;;37.47;18.23;;;;;;;-144.31;100.00;58022.63;5034669;28;20493;-59
2023/01/22 03:40:26;;;;;;;39.92;19.48;;;;;;;-144.31;100.00;58022.63;5033738;28;20040;-58
2023/01/22 03:42:52;;;;;;;41.70;19.75;;;;;;;-144.31;100.00;58022.63;5040599;28;20053;-57
2023/01/22 03:45:18;;;;;;;41.55;19.73;;;;;;;-144.31;100.00;58022.63;5034853;28;20049;-58
2023/01/22 03:47:43;;;;;;;44.63;20.05;;;;;;;-144.31;100.00;58022.63;5031608;28;20470;-58
2023/01/22 03:50:31;;;;;;;43.10;19.40;;;;;;;-144.31;100.00;58022.63;5038075;28;20051;-60
2023/01/22 03:52:57;;;;;;;40.75;20.40;;;;;;;-144.31;100.00;58022.63;5033473;28;20428;-59
2023/01/22 03:55:24;;;;;;;40.75;19.10;;;;;;;-144.31;100.00;58022.63;5036985;28;20042;-58
2023/01/22 03:57:51;;;;;;;40.78;18.33;;;;;;;-144.31;100.00;58022.63;5035255;28;20052;-57
2023/01/22 04:00:17;;;;;;;41.70;21.00;;;;;;;-144.31;100.00;58022.63;5035799;28;20131;-56
2023/01/22 04:02:43;;;;;;;40.72;18.95;;;;;;;-144.31;100.00;58022.63;5033824;28;20043;-55
2023/01/22 04:05:17;;;;;;;42.58;18.65;;;;;;;-144.31;100.00;58022.63;5034997;28;20406;-56
2023/01/22 04:07:43;;;;;;;38.38;17.83;;;;;;;-144.31;100.00;58022.63;5050358;28;20486;-54
2023/01/22 04:10:09;;;;;;;33.72;17.88;;;;;;;-144.31;100.00;58022.63;5028451;28;20035;-58
2023/01/22 04:12:35;;;;;;;37.90;18.65;;;;;;;-144.31;100.00;58022.63;5040292;28;20881;-58
2023/01/22 04:15:00;;;;;;;39.90;19.40;;;;;;;-144.31;100.00;58022.63;5040360;28;20044;-59
2023/01/22 04:17:25;;;;;;;40.00;18.17;;;;;;;-144.31;100.00;58022.63;5034296;28;20033;-55
2023/01/22 04:20:11;;;;;;;37.55;18.80;;;;;;;-144.31;100.00;58022.63;5034178;28;21646;-57
2023/01/22 04:22:44;;;;;;;38.08;17.80;;;;;;;-144.31;100.00;58022.63;5042042;28;20401;-57
2023/01/22 04:25:11;;;;;;;39.00;19.65;;;;;;;-144.31;100.00;58022.63;5033780;28;20033;-57
2023/01/22 04:27:36;;;;;;;39.63;18.52;;;;;;;-144.31;100.00;58022.63;5034598;28;20064;-54
2023/01/22 04:30:06;;;;;;;41.22;19.83;;;;;;;-144.31;100.00;58022.63;5037239;28;20039;-54
2023/01/22 04:32:32;;;;;;;37.25;18.20;;;;;;;-144.31;100.00;58022.63;5040074;28;20560;-58
2023/01/22 04:35:16;;;;;;;33.97;17.85;;;;;;;-144.31;100.00;58022.63;5038390;28;20046;-58
2023/01/22 04:37:47;;;;;;;37.92;18.77;;;;;;;-144.31;100.00;58022.63;5036131;28;20060;-57
2023/01/22 04:40:12;;;;;;;44.10;21.15;;;;;;;-144.31;100.00;58022.63;5035598;28;20130;-53
2023/01/22 04:42:38;;;;;;;40.42;18.98;;;;;;;-144.31;100.00;58022.63;5039947;28;20069;-58
2023/01/22 04:45:04;;;;;;;37.53;17.17;;;;;;;-144.31;100.00;58022.63;5032426;28;20179;-58
2023/01/22 04:47:30;;;;;;;41.63;20.42;;;;;;;-144.31;100.00;58022.63;5036224;28;20461;-60
2023/01/22 04:49:56;;;;;;;40.47;18.73;;;;;;;-144.31;100.00;58022.63;5032472;28;20700;-58
2023/01/22 04:52:21;;;;;;;44.00;19.75;;;;;;;-144.31;100.00;58022.63;5034970;28;20049;-59
2023/01/22 04:54:46;;;;;;;42.60;20.88;;;;;;;-144.31;100.00;58022.63;5019377;28;20041;-55
2023/01/22 04:57:12;;;;;;;41.40;20.38;;;;;;;-144.31;100.00;58022.63;5033190;28;20047;-59
2023/01/22 04:59:37;;;;;;;38.72;19.70;;;;;;;-144.31;100.00;58022.63;5032451;28;20041;-57
2023/01/22 05:02:03;;;;;;;42.30;20.70;;;;;;;-144.31;100.00;58022.63;5031586;28;20128;-57
2023/01/22 05:04:30;;;;;;;37.45;19.23;;;;;;;-144.31;100.00;58022.63;5037947;28;20579;-57
2023/01/22 05:06:55;;;;;;;40.42;19.38;;;;;;;-144.31;100.00;58022.63;5032650;28;20040;-58
2023/01/22 05:09:21;;;;;;;47.83;22.20;;;;;;;-144.31;100.00;58022.63;5047506;28;20037;-57
2023/01/22 05:11:52;;;;;;;49.55;21.27;;;;;;;-144.31;100.00;58022.63;5038509;28;20398;-60
2023/01/22 05:14:17;;;;;;;47.00;20.88;;;;;;;-144.31;100.00;58022.63;5035916;28;20045;-58
2023/01/22 05:16:45;;;;;;;41.85;19.45;;;;;;;-144.31;100.00;58022.63;5032656;28;20565;-57
2023/01/22 05:19:11;;;;;;;41.72;20.15;;;;;;;-144.31;100.00;58022.63;5034992;28;20041;-58
2023/01/22 05:21:36;;;;;;;47.13;20.73;;;;;;;-144.31;100.00;58022.63;5017049;28;20405;-61
2023/01/22 05:24:04;;;;;;;42.65;20.30;;;;;;;-144.31;100.00;58022.63;5032131;28;20139;-58
2023/01/22 05:26:29;;;;;;;39.47;19.75;;;;;;;-144.31;100.00;58022.63;5032569;28;20044;-59
2023/01/22 05:29:02;;;;;;;45.03;19.38;;;;;;;-144.31;100.00;58022.63;5044881;28;20136;-59
2023/01/22 05:31:46;;;;;;;44.55;20.90;;;;;;;-144.31;100.00;58022.63;5041588;28;20069;-57
2023/01/22 05:34:23;;;;;;;;;;;;;;;-144.31;100.00;58022.63;5038357;28;20041;-61
2023/01/22 05:36:50;;;;;;;42.20;19.17;;;;;;;-144.31;100.00;58022.63;5036652;28;19971;-59
2023/01/22 05:39:19;;;;;;;45.92;20.92;;;;;;;-144.31;100.00;58022.63;5036994;28;20478;-59
2023/01/22 05:41:44;;;;;;;47.45;21.48;;;;;;;-144.31;100.00;58022.63;5038880;28;20121;-56
2023/01/22 05:44:12;;;;;;;47.45;21.50;;;;;;;-144.31;100.00;58022.63;5037918;28;20041;-58
2023/01/22 05:46:39;;;;;;;49.67;21.95;;;;;;;-144.31;100.00;58022.63;5042590;28;20072;-60
2023/01/22 05:49:34;;;;;;;51.88;21.33;;;;;;;-144.31;100.00;58022.63;5029343;28;20394;-58
2023/01/22 05:51:59;;;;;;;47.22;22.65;;;;;;;-144.31;100.00;58022.63;5051588;28;20505;-59
2023/01/22 05:54:25;;;;;;;47.10;22.70;;;;;;;-144.31;100.00;58022.63;5039413;28;20159;-60
2023/01/22 05:56:52;;;;;;;49.20;21.10;;;;;;;-144.31;100.00;58022.63;5036077;28;20490;-57
2023/01/22 05:59:17;;;;;;;46.55;22.25;;;;;;;-144.31;100.00;58022.63;5037218;28;20051;-60
2023/01/22 06:01:48;;;;;;;46.78;21.17;;;;;;;-144.31;100.00;58022.63;5036986;28;20045;-62
2023/01/22 06:04:14;;;;;;;49.63;22.40;;;;;;;-144.31;100.00;58022.63;5038302;28;20041;-61
2023/01/22 06:06:39;;;;;;;48.42;22.50;;;;;;;-144.31;100.00;58022.63;5040083;28;20047;-58
2023/01/22 06:09:05;;;;;;;45.47;20.85;;;;;;;-144.31;100.00;58022.63;5033091;28;20080;-62
2023/01/22 06:11:34;;;;;;;44.50;19.73;;;;;;;-144.31;100.00;58022.63;5033357;28;20143;-59
2023/01/22 06:14:01;;;;;;;48.90;23.42;;;;;;;-144.31;100.00;58022.63;5034073;28;20872;-59
2023/01/22 06:16:26;;;;;;;52.50;22.90;;;;;;;-144.31;100.00;58022.63;5038733;28;20041;-59
2023/01/22 06:19:20;;;;;;;49.10;23.30;;;;;;;-144.31;100.00;58022.63;5033997;28;20178;-55
2023/01/22 06:21:50;;;;;;;48.58;21.00;;;;;;;-144.31;100.00;58022.63;5039437;28;20029;-56
2023/01/22 06:24:17;;;;;;;55.10;23.25;;;;;;;-144.31;100.00;58022.63;5035391;28;20037;-58
2023/01/22 06:26:43;;;;;;;50.90;22.27;;;;;;;-144.31;100.00;58022.63;5038722;28;20104;-58
2023/01/22 06:29:11;;;;;;;54.90;22.40;;;;;;;-144.31;100.00;58022.63;5035595;28;20042;-56
2023/01/22 06:31:37;;;;;;;50.00;22.27;;;;;;;-144.31;100.00;58022.63;5036317;28;20049;-55
2023/01/22 06:34:06;;;;;;;55.30;23.70;;;;;;;-144.31;100.00;58022.63;5032247;28;20106;-58
2023/01/22 06:36:31;;;;;;;54.17;22.60;;;;;;;-144.31;100.00;58022.63;5043513;28;20045;-57
2023/01/22 06:38:57;;;;;;;51.53;22.67;;;;;;;-144.31;100.00;58022.63;5042504;28;20044;-58
2023/01/22 06:41:34;;;;;;;47.83;21.45;;;;;;;-144.31;100.00;58022.63;5035319;28;20041;-56
2023/01/22 06:44:01;;;;;;;56.42;24.10;;;;;;;-144.31;100.00;58022.63;5034980;28;20069;-57
2023/01/22 06:46:27;;;;;;;57.33;23.48;;;;;;;-144.31;100.00;58022.63;5037053;28;20133;-58
2023/01/22 06:49:03;;;;;;;50.17;22.33;;;;;;;-144.31;100.00;58022.63;5036668;28;20064;-58
2023/01/22 06:51:29;;;;;;;58.67;24.17;;;;;;;-144.31;100.00;58022.63;5035119;28;21374;-59
2023/01/22 06:53:55;;;;;;;51.38;23.50;;;;;;;-144.31;100.00;58022.63;5040536;28;20045;-59
2023/01/22 06:56:20;;;;;;;55.78;24.60;;;;;;;-144.31;100.00;58022.63;5034805;28;20049;-56
2023/01/22 06:58:46;;;;;;;59.65;24.60;;;;;;;-144.31;100.00;58022.63;5035577;28;20156;-60
2023/01/22 07:01:11;;;;;;;53.17;21.80;;;;;;;-144.31;100.00;58022.63;5032969;28;20036;-59
2023/01/22 07:03:37;;;;;;;55.78;24.25;;;;;;;-144.31;100.00;58022.63;5037439;28;20056;-52
2023/01/22 07:06:03;;;;;;;57.72;24.95;;;;;;;-144.31;100.00;58022.63;5033850;28;20056;-58
2023/01/22 07:08:31;;;;;;;56.43;25.23;;;;;;;-144.31;100.00;58022.63;5033850;28;20426;-57
2023/01/22 07:10:57;;;;;;;53.67;24.92;;;;;;;-144.31;100.00;58022.63;5034527;28;20433;-59
2023/01/22 07:13:23;;;;;;;62.17;26.73;;;;;;;-144.31;100.00;58022.63;5037269;28;20068;-61
2023/01/22 07:15:48;;;;;;;60.03;25.17;;;;;;;-144.31;100.00;58022.63;5038413;28;20045;-56
2023/01/22 07:18:15;;;;;;;55.35;24.08;;;;;;;-144.31;100.00;58022.63;5035650;28;20036;-57
2023/01/22 07:20:42;;;;;;;57.58;24.85;;;;;;;-144.31;100.00;58022.63;5033282;28;20063;-57
2023/01/22 07:23:08;;;;;;;62.87;26.30;;;;;;;-144.31;100.00;58022.63;5034884;28;20343;-57
2023/01/22 07:25:33;;;;;;;58.75;25.05;;;;;;;-144.31;100.00;58022.63;5035191;28;20539;-58
2023/01/22 07:28:00;;;;;;;59.45;24.13;;;;;;;-144.31;100.00;58022.63;5036026;28;20045;-63
2023/01/22 07:30:26;;;;;;;60.90;25.52;;;;;;;-144.31;100.00;58022.63;5033397;28;20091;-57
2023/01/22 07:32:52;;;;;;;56.58;23.83;;;;;;;-144.31;100.00;58022.63;5033053;28;20067;-58
2023/01/22 07:35:17;;;;;;;48.38;22.70;;;;;;;-144.31;100.00;58022.63;5030317;28;20086;-57
2023/01/22 07:37:50;;;;;;;57.78;23.17;;;;;;;-144.31;100.00;58022.63;5033709;28;20033;-59
2023/01/22 07:40:16;;;;;;;44.33;21.77;;;;;;;-144.31;100.00;58022.63;5035862;28;20393;-57
2023/01/22 07:42:41;;;;;;;54.00;25.88;;;;;;;-144.31;100.00;58022.63;5035821;28;20485;-56
2023/01/22 07:45:07;;;;;;;60.33;26.73;;;;;;;-144.31;100.00;58022.63;5037015;28;20048;-55
2023/01/22 07:47:32;;;;;;;50.40;23.80;;;;;;;-144.31;100.00;58022.63;5035302;28;20041;-54
2023/01/22 07:49:58;;;;;;;57.40;25.08;;;;;;;-144.31;100.00;58022.63;5033840;28;20047;-58
2023/01/22 07:52:23;;;;;;;48.90;22.88;;;;;;;-144.31;100.00;58022.63;5036473;28;20051;-57
2023/01/22 07:54:48;;;;;;;52.30;24.50;;;;;;;-144.31;100.00;58022.63;5032881;28;20378;-58
2023/01/22 07:57:15;;;;;;;46.08;22.02;;;;;;;-144.31;100.00;58022.63;5034574;28;20613;-57
2023/01/22 07:59:41;;;;;;;51.13;23.08;;;;;;;-144.31;100.00;58022.63;5034538;28;20052;-56
2023/01/22 08:02:14;;;;;;;47.70;22.88;;;;;;;-144.31;100.00;58022.63;5031972;28;20041;-60
2023/01/22 08:04:42;;;;;;;48.28;23.77;;;;;;;-144.31;100.00;58022.63;5033808;28;20117;-55
2023/01/22 08:07:15;;;;;;;52.67;23.05;;;;;;;-144.31;100.00;58022.63;5033689;28;20136;-58
2023/01/22 08:09:40;;;;;;;53.83;25.58;;;;;;;-144.31;100.00;58022.63;5032278;28;20116;-57
2023/01/22 08:12:06;;;;;;;48.28;23.27;;;;;;;-144.31;100.00;58022.63;5048790;28;20390;-56
2023/01/22 08:14:31;;;;;;;51.75;22.80;;;;;;;-144.31;100.00;58022.63;5031713;28;20091;-58
2023/01/22 08:16:57;;;;;;;50.90;23.13;;;;;;;-144.31;100.00;58022.63;5036825;28;20381;-60
2023/01/22 08:19:22;;;;;;;53.17;24.02;;;;;;;-144.31;100.00;58022.63;5040134;28;20083;-58
2023/01/22 08:21:47;;;;;;;47.30;22.27;;;;;;;-144.31;100.00;58022.63;5034148;28;20055;-60
2023/01/22 08:24:13;;;;;;;48.97;22.35;;;;;;;-144.31;100.00;58022.63;5033677;28;20032;-58
2023/01/22 08:26:38;;;;;;;43.53;21.77;;;;;;;-144.31;100.00;58022.63;5034223;28;20044;-56
2023/01/22 08:29:05;;;;;;;43.80;21.65;;;;;;;-144.31;100.00;58022.63;5034058;28;20037;-59
2023/01/22 08:31:30;;;;;;;44.15;22.30;;;;;;;-144.31;100.00;58022.63;5032614;28;20049;-59
2023/01/22 08:33:58;;;;;;;49.90;21.85;;;;;;;-144.31;100.00;58022.63;5034412;28;20046;-59
2023/01/22 08:36:24;;;;;;;50.42;22.40;;;;;;;-144.31;100.00;58022.63;5034728;28;20041;-60
2023/01/22 08:38:49;;;;;;;43.05;21.20;;;;;;;-144.31;100.00;58022.63;5031877;28;20373;-59
2023/01/22 08:41:15;;;;;;;49.03;22.23;;;;;;;-144.31;100.00;58022.63;5032277;28;20037;-58
2023/01/22 08:43:40;;;;;;;46.90;23.35;;;;;;;-144.31;100.00;58022.63;5035718;28;20632;-56
2023/01/22 08:46:06;;;;;;;47.55;23.42;;;;;;;-144.31;100.00;58022.63;5030494;28;20049;-58
2023/01/22 08:48:31;;;;;;;41.40;22.05;;;;;;;-144.31;100.00;58022.63;5036106;28;20045;-57
2023/01/22 08:51:00;;;;;;;41.17;21.20;;;;;;;-144.31;100.00;58022.63;5031910;28;20049;-53
2023/01/22 08:53:25;;;;;;;42.67;22.23;;;;;;;-144.31;100.00;58022.63;5032241;28;20045;-54
2023/01/22 08:55:51;;;;;;;39.92;20.58;;;;;;;-144.31;100.00;58022.63;5032952;28;20049;-57
2023/01/22 08:58:17;;;;;;;38.67;18.80;;;;;;;-144.31;100.00;58022.63;5033375;28;20036;-61
2023/01/22 09:00:43;;;;;;;38.17;19.05;;;;;;;-144.31;100.00;58022.63;5033708;28;20037;-59
2023/01/22 09:03:08;;;;;;;38.67;19.73;;;;;;;-144.31;100.00;58022.63;5037278;28;20044;-57
2023/01/22 09:05:38;;;;;;;35.10;18.98;;;;;;;-144.31;100.00;58022.63;5040561;28;20473;-55
2023/01/22 09:08:03;;;;;;;37.08;18.92;;;;;;;-144.31;100.00;58022.63;5037202;28;20044;-57
2023/01/22 09:10:29;;;;;;;40.83;21.27;;;;;;;-144.31;100.00;58022.63;5036097;28;20041;-56
2023/01/22 09:12:59;;;;;;;45.13;22.58;;;;;;;-144.31;100.00;58022.63;5041263;28;20064;-60
2023/01/22 09:15:24;;;;;;;43.28;22.30;;;;;;;-144.31;100.00;58022.63;5037983;28;20087;-61
2023/01/22 09:17:50;;;;;;;41.25;20.65;;;;;;;-144.31;100.00;58022.63;5053661;28;20049;-57
2023/01/22 09:20:16;;;;;;;41.38;20.05;;;;;;;-144.31;100.00;58022.63;5036822;28;20068;-56
2023/01/22 09:22:44;;;;;;;41.28;20.33;;;;;;;-144.31;100.00;58022.63;5035444;28;20034;-59
2023/01/22 09:25:09;;;;;;;40.42;20.00;;;;;;;-144.31;100.00;58022.63;5035354;28;20069;-59
2023/01/22 09:27:35;;;;;;;40.40;19.85;;;;;;;-144.31;100.00;58022.63;5036789;28;20076;-56
2023/01/22 09:30:00;;;;;;;38.70;18.83;;;;;;;-144.31;100.00;58022.63;5037245;28;20037;-54
2023/01/22 09:32:26;;;;;;;37.67;18.85;;;;;;;-144.31;100.00;58022.63;5037065;28;20037;-60
2023/01/22 09:34:51;;;;;;;37.60;18.88;;;;;;;-144.31;100.00;58022.63;5038406;28;20041;-58
2023/01/22 09:37:17;;;;;;;43.05;19.27;;;;;;;-144.31;100.00;58022.63;5038145;28;20060;-56
2023/01/22 09:39:42;;;;;;;39.25;19.45;;;;;;;-144.31;100.00;58022.63;5037824;28;20349;-56
2023/01/22 09:42:16;;;;;;;35.35;18.90;;;;;;;-144.31;100.00;58022.63;5037383;28;20473;-54
2023/01/22 09:44:46;;;;;;;33.05;17.92;;;;;;;-144.31;100.00;58022.63;5035761;28;20045;-58
2023/01/22 09:47:17;;;;;;;33.70;18.77;;;;;;;-144.31;100.00;58022.63;5036734;28;20038;-55
2023/01/22 09:50:26;;;;;;;38.35;18.50;;;;;;;-144.31;100.00;58022.63;5034869;28;20071;-59
2023/01/22 09:52:55;;;;;;;37.63;19.02;;;;;;;-144.31;100.00;58022.63;5039061;28;20046;-61
2023/01/22 09:55:23;;;;;;;38.05;19.73;;;;;;;-144.31;100.00;58022.63;5036141;28;20055;-61
2023/01/22 09:57:54;;;;;;;40.38;19.75;;;;;;;-144.31;100.00;58022.63;5034876;28;20041;-57
2023/01/22 10:01:03;;;;;;;35.40;19.55;;;;;;;-144.31;100.00;58022.63;5036998;28;20028;-55
2023/01/22 10:03:50;;;;;;;36.83;18.55;;;;;;;-144.31;100.00;58022.63;5034397;28;20056;-58
2023/01/22 10:06:21;;;;;;;37.75;19.13;;;;;;;-144.31;100.00;58022.63;5037720;28;20029;-58
2023/01/22 10:09:09;;;;;;;37.50;17.98;;;;;;;-144.31;100.00;58022.63;5036300;28;20051;-57
2023/01/22 10:11:38;;;;;;;37.17;18.55;;;;;;;-144.31;100.00;58022.63;5038491;28;20520;-55
2023/01/22 10:14:11;;;;;;;37.65;18.73;;;;;;;-144.31;100.00;58022.63;5033428;28;20043;-55
2023/01/22 10:16:37;;;;;;;41.33;20.23;;;;;;;-144.31;100.00;58022.63;5035923;28;20116;-56
2023/01/22 10:19:16;;;;;;;44.75;22.13;;;;;;;-144.31;100.00;58022.63;5041217;28;20124;-56
2023/01/22 10:21:48;;;;;;;42.17;21.42;;;;;;;-144.31;100.00;58022.63;5035861;28;20474;-57
2023/01/22 10:24:13;;;;;;;39.65;19.45;;;;;;;-144.31;100.00;58022.63;5037146;28;20035;-59
2023/01/22 10:26:53;;;;;;;45.05;21.17;;;;;;;-144.31;100.00;58022.63;5034588;28;20041;-53
2023/01/22 10:29:31;;;;;;;38.92;21.13;;;;;;;-144.31;100.00;58022.63;5035882;28;20537;-57
2023/01/22 10:32:25;;;;;;;44.38;23.40;;;;;;;-144.31;100.00;58022.63;5035883;28;20087;-58
2023/01/22 10:35:03;;;;;;;43.00;21.52;;;;;;;-144.31;100.00;58022.63;5030945;28;20057;-57
2023/01/22 10:37:30;;;;;;;40.42;20.95;;;;;;;-144.31;100.00;58022.63;5036359;28;20065;-61
2023/01/22 10:39:58;;;;;;;42.63;22.45;;;;;;;-144.31;100.00;58022.63;5037115;28;20548;-58
2023/01/22 10:42:27;;;;;;;49.22;23.42;;;;;;;-144.31;100.00;58022.63;5036410;28;20040;-58
2023/01/22 10:45:08;;;;;;;46.28;23.40;;;;;;;-144.31;100.00;58022.63;5033632;28;20052;-58
2023/01/22 10:47:33;;;;;;;49.53;23.80;;;;;;;-144.31;100.00;58022.63;5033351;28;20057;-58
2023/01/22 10:50:12;;;;;;;48.80;23.60;;;;;;;-144.31;100.00;58022.63;5034136;28;20398;-57
2023/01/22 10:52:41;;;;;;;48.17;24.23;;;;;;;-144.31;100.00;58022.63;5035659;28;20100;-58
2023/01/22 10:55:20;;;;;;;54.38;26.17;;;;;;;-144.31;100.00;58022.63;5026279;28;20053;-57
2023/01/22 10:57:52;;;;;;;54.58;26.98;;;;;;;-144.31;100.00;58022.63;5036857;28;20124;-57
2023/01/22 11:00:54;;;;;;;50.08;25.80;;;;;;;-144.31;100.00;58022.63;5035852;28;20044;-60
2023/01/22 11:03:29;;;;;;;55.90;26.98;;;;;;;-144.31;100.00;58022.63;5032587;28;20056;-53
2023/01/22 11:05:59;;;;;;;51.65;26.85;;;;;;;-144.31;100.00;58022.63;5033477;28;20053;-62
2023/01/22 11:08:29;;;;;;;58.33;29.23;;;;;;;-144.31;100.00;58022.63;5023986;28;20041;-58
2023/01/22 11:11:06;;;;;;;57.03;27.30;;;;;;;-144.31;100.00;58022.63;5025803;28;20037;-58